createdAt,value
2019-06-26T00:01:29.335Z,25.40
2019-06-26T00:03:57.810Z,25.47
2019-06-26T00:06:26.219Z,25.50
2019-06-26T00:08:54.693Z,25.44
2019-06-26T00:11:23.077Z,25.46
2019-06-26T00:13:51.467Z,25.46
2019-06-26T00:16:19.892Z,25.52
2019-06-26T00:18:48.313Z,25.42
2019-06-26T00:21:16.920Z,25.34
2019-06-26T00:23:45.345Z,25.35
2019-06-26T00:26:13.747Z,25.30
2019-06-26T00:28:42.177Z,25.35
2019-06-26T00:31:10.599Z,25.28
2019-06-26T00:33:39.002Z,25.30
2019-06-26T00:36:07.433Z,25.34
2019-06-26T00:38:35.861Z,25.37
2019-06-26T00:41:04.286Z,25.41
2019-06-26T00:43:42.066Z,25.43
2019-06-26T00:46:02.855Z,25.45
2019-06-26T00:48:31.261Z,25.46
2019-06-26T00:50:59.697Z,25.46
2019-06-26T00:53:28.116Z,25.30
2019-06-26T00:55:56.531Z,25.29
2019-06-26T00:58:24.961Z,25.29
2019-06-26T01:00:53.929Z,25.30
2019-06-26T01:03:22.336Z,25.32
2019-06-26T01:05:50.773Z,25.26
2019-06-26T01:08:19.177Z,25.30
2019-06-26T01:10:47.599Z,25.31
2019-06-26T01:13:16.010Z,25.29
2019-06-26T01:15:44.419Z,25.22
2019-06-26T01:18:12.849Z,25.28
2019-06-26T01:20:41.453Z,25.24
2019-06-26T01:23:09.873Z,25.27
2019-06-26T03:42:06.346Z,24.49
2019-06-26T03:44:34.785Z,24.53
2019-06-26T03:47:03.204Z,24.58
2019-06-26T03:49:31.677Z,24.50
2019-06-26T03:52:00.062Z,24.40
2019-06-26T03:54:43.873Z,24.54
2019-06-26T03:57:12.288Z,24.67
2019-06-26T03:59:40.702Z,24.76
2019-06-26T04:02:09.156Z,24.78
2019-06-26T04:04:37.566Z,24.88
2019-06-26T04:07:05.999Z,24.94
2019-06-26T04:09:34.425Z,25.08
2019-06-26T04:12:03.329Z,25.02
2019-06-26T04:14:31.754Z,25.12
2019-06-26T04:17:00.167Z,25.14
2019-06-26T04:19:28.583Z,25.07
2019-06-26T04:21:56.997Z,25.22
2019-06-26T04:24:25.415Z,25.23
2019-06-26T04:26:53.828Z,25.38
2019-06-26T04:29:22.250Z,25.59
2019-06-26T04:31:50.655Z,25.54
2019-06-26T04:34:19.097Z,25.57
2019-06-26T04:36:47.515Z,25.64
2019-06-26T04:39:16.011Z,25.77
2019-06-26T04:41:44.427Z,26.01
2019-06-26T04:44:12.851Z,25.94
2019-06-26T04:46:41.258Z,25.96
2019-06-26T04:49:09.681Z,25.97
2019-06-26T04:51:38.100Z,25.94
2019-06-26T04:54:06.506Z,25.86
2019-06-26T04:56:34.906Z,26.16
2019-06-26T04:59:03.335Z,26.36
2019-06-26T05:01:31.765Z,26.49
2019-06-26T05:04:00.197Z,26.62
2019-06-26T05:06:28.627Z,26.90
2019-06-26T05:08:57.041Z,27.13
2019-06-26T05:11:25.459Z,27.41
2019-06-26T05:13:53.877Z,27.39
2019-06-26T05:16:22.279Z,27.83
2019-06-26T05:18:50.715Z,28.16
2019-06-26T05:21:19.129Z,29.11
2019-06-26T05:23:47.548Z,30.02
2019-06-26T05:26:15.962Z,30.12
2019-06-26T05:28:44.385Z,30.38
2019-06-26T05:31:12.814Z,31.09
2019-06-26T05:33:41.237Z,32.45
2019-06-26T05:36:09.658Z,33.58
2019-06-26T05:38:38.084Z,34.62
2019-06-26T05:41:06.504Z,35.47
2019-06-26T05:43:34.923Z,36.12
2019-06-26T05:46:03.422Z,36.31
2019-06-26T05:48:31.830Z,37.67
2019-06-26T05:51:00.239Z,37.89
2019-06-26T05:53:28.699Z,38.69
2019-06-26T05:55:57.107Z,39.22
2019-06-26T05:58:25.516Z,39.48
2019-06-26T06:00:53.929Z,39.73
2019-06-26T06:03:22.341Z,39.92
2019-06-26T06:05:50.760Z,39.83
2019-06-26T06:08:19.247Z,39.93
2019-06-26T06:10:47.627Z,38.51
2019-06-26T06:13:16.068Z,37.29
2019-06-26T06:15:44.484Z,37.97
2019-06-26T06:18:12.901Z,39.48
2019-06-26T06:20:41.431Z,39.46
2019-06-26T06:23:09.949Z,39.21
2019-06-26T06:25:38.345Z,39.92
2019-06-26T06:28:06.767Z,41.29
2019-06-26T06:30:35.172Z,40.65
2019-06-26T06:33:03.577Z,40.49
2019-06-26T06:35:31.992Z,41.03
2019-06-26T06:38:00.396Z,41.00
2019-06-26T06:40:28.797Z,40.88
2019-06-26T06:42:57.203Z,40.19
2019-06-26T06:45:25.951Z,40.84
2019-06-26T06:47:54.351Z,40.14
2019-06-26T06:50:22.767Z,40.70
2019-06-26T06:52:51.178Z,42.05
2019-06-26T06:55:19.587Z,41.83
2019-06-26T06:57:47.992Z,41.17
2019-06-26T07:00:17.063Z,41.32
2019-06-26T07:02:45.472Z,41.51
2019-06-26T07:05:14.007Z,42.62
2019-06-26T07:07:42.418Z,42.58
2019-06-26T07:10:11.067Z,41.33
2019-06-26T07:12:39.472Z,42.41
2019-06-26T07:15:09.234Z,42.71
2019-06-26T07:17:37.625Z,42.65
2019-06-26T07:20:06.616Z,42.47
2019-06-26T07:22:35.139Z,42.47
2019-06-26T07:25:03.687Z,42.39
2019-06-26T07:27:32.085Z,42.28
2019-06-26T07:30:00.494Z,41.75
2019-06-26T07:32:28.981Z,41.34
2019-06-26T07:34:57.392Z,40.26
2019-06-26T07:37:25.803Z,40.55
2019-06-26T07:39:58.795Z,40.24
2019-06-26T07:42:24.344Z,40.28
2019-06-26T07:44:52.770Z,40.90
2019-06-26T07:47:23.555Z,41.45
2019-06-26T07:49:51.315Z,40.47
2019-06-26T07:52:19.714Z,40.42
2019-06-26T07:54:48.121Z,41.35
2019-06-26T07:57:16.525Z,41.37
2019-06-26T07:59:44.952Z,40.85
2019-06-26T08:02:13.366Z,40.79
2019-06-26T08:04:41.842Z,40.97
2019-06-26T08:07:10.248Z,40.95
2019-06-26T08:09:38.638Z,39.78
2019-06-26T08:12:07.038Z,39.25
2019-06-26T08:14:35.461Z,39.30
2019-06-26T08:17:03.860Z,39.07
2019-06-26T08:19:32.265Z,39.24
2019-06-26T08:22:02.353Z,39.05
2019-06-26T08:24:30.746Z,38.83
2019-06-26T08:26:59.153Z,38.48
2019-06-26T08:29:27.561Z,38.17
2019-06-26T08:31:55.959Z,38.52
2019-06-26T08:34:24.346Z,38.87
2019-06-26T08:36:52.779Z,38.22
2019-06-26T08:39:21.199Z,38.15
2019-06-26T08:41:49.607Z,37.61
2019-06-26T08:44:18.011Z,37.25
2019-06-26T08:46:46.417Z,37.27
2019-06-26T08:49:24.850Z,37.03
2019-06-26T08:51:45.090Z,37.32
2019-06-26T08:54:13.483Z,37.22
2019-06-26T08:56:41.894Z,37.26
2019-06-26T08:59:10.295Z,37.19
2019-06-26T09:01:38.700Z,37.38
2019-06-26T09:04:07.102Z,37.13
2019-06-26T09:06:35.527Z,36.73
2019-06-26T09:09:06.264Z,35.68
2019-06-26T09:11:34.938Z,35.63
2019-06-26T09:14:03.480Z,35.78
2019-06-26T09:16:31.893Z,36.09
2019-06-26T09:19:00.300Z,36.06
2019-06-26T09:21:31.092Z,36.48
2019-06-26T09:23:58.852Z,35.84
2019-06-26T09:26:27.294Z,35.54
2019-06-26T09:28:55.714Z,35.41
2019-06-26T09:31:24.141Z,35.47
2019-06-26T09:33:52.571Z,35.85
2019-06-26T09:36:20.964Z,35.87
2019-06-26T09:38:49.391Z,35.70
2019-06-26T09:41:17.792Z,35.75
2019-06-26T09:43:46.204Z,35.85
2019-06-26T09:46:14.622Z,35.52
2019-06-26T09:48:52.638Z,35.44
2019-06-26T09:51:13.164Z,35.32
2019-06-26T09:53:47.015Z,35.79
2019-06-26T09:56:11.723Z,35.52
2019-06-26T09:58:40.129Z,35.19
2019-06-26T10:01:08.543Z,35.55
2019-06-26T10:03:36.967Z,35.61
2019-06-26T10:06:05.379Z,35.44
2019-06-26T10:08:33.804Z,35.77
2019-06-26T10:11:02.217Z,35.96
2019-06-26T10:13:30.614Z,35.84
2019-06-26T10:16:00.616Z,36.02
2019-06-26T10:18:29.226Z,35.91
2019-06-26T10:20:57.656Z,35.97
2019-06-26T10:23:26.072Z,35.65
2019-06-26T10:25:54.465Z,35.67
2019-06-26T10:28:22.879Z,36.11
2019-06-26T10:30:51.299Z,36.16
2019-06-26T10:33:19.713Z,36.31
2019-06-26T10:35:48.132Z,36.32
2019-06-26T10:38:16.553Z,36.00
2019-06-26T10:40:45.029Z,36.00
2019-06-26T10:43:13.447Z,36.15
2019-06-26T10:45:41.881Z,35.95
2019-06-26T10:48:10.284Z,36.06
2019-06-26T10:50:49.504Z,35.94
2019-06-26T10:53:08.841Z,35.32
2019-06-26T10:55:37.244Z,35.41
2019-06-26T10:58:05.701Z,35.11
2019-06-26T11:00:34.347Z,34.91
2019-06-26T11:03:02.812Z,34.98
2019-06-26T11:05:31.286Z,35.01
2019-06-26T11:07:59.727Z,35.00
2019-06-26T11:10:28.195Z,35.04
2019-06-26T11:12:56.608Z,35.30
2019-06-26T11:15:25.093Z,35.39
2019-06-26T11:17:53.603Z,35.84
2019-06-26T11:20:22.038Z,36.23
2019-06-26T11:22:50.470Z,36.17
2019-06-26T11:25:20.797Z,35.65
2019-06-26T11:27:49.449Z,35.87
2019-06-26T11:30:20.871Z,35.96
2019-06-26T11:32:49.309Z,35.85
2019-06-26T11:35:17.793Z,35.75
2019-06-26T11:37:46.210Z,35.56
2019-06-26T11:40:15.031Z,35.61
2019-06-26T11:42:43.448Z,35.47
2019-06-26T11:45:13.213Z,35.52
2019-06-26T11:47:44.736Z,35.35
2019-06-26T11:50:12.277Z,35.17
2019-06-26T11:52:41.259Z,34.93
2019-06-26T11:55:12.574Z,35.13
2019-06-26T11:57:41.049Z,35.16
2019-06-26T12:00:17.566Z,35.59
2019-06-26T12:02:45.976Z,35.63
2019-06-26T12:05:15.114Z,35.61
2019-06-26T12:07:43.587Z,35.21
2019-06-26T12:10:12.949Z,35.28
2019-06-26T12:12:41.536Z,35.17
2019-06-26T12:15:10.778Z,35.10
2019-06-26T12:17:39.211Z,34.84
2019-06-26T12:20:18.428Z,34.98
2019-06-26T12:22:38.085Z,34.84
2019-06-26T12:25:07.074Z,34.67
2019-06-26T12:27:35.458Z,34.79
2019-06-26T12:30:06.545Z,35.05
2019-06-26T12:32:41.906Z,34.86
2019-06-26T12:35:07.956Z,34.75
2019-06-26T12:37:38.034Z,34.75
2019-06-26T12:40:07.132Z,34.74
2019-06-26T12:42:35.553Z,34.67
2019-06-26T12:45:05.410Z,34.75
2019-06-26T12:47:33.822Z,35.07
2019-06-26T12:50:02.824Z,35.06
2019-06-26T12:52:31.498Z,35.03
2019-06-26T12:54:59.893Z,34.89
2019-06-26T12:57:28.363Z,34.62
2019-06-26T12:59:58.032Z,34.64
2019-06-26T13:02:26.514Z,34.89
2019-06-26T13:04:54.903Z,34.77
2019-06-26T13:07:23.328Z,34.73
2019-06-26T13:09:51.733Z,34.39
2019-06-26T13:12:20.141Z,34.49
2019-06-26T13:14:48.559Z,34.72
2019-06-26T13:17:16.969Z,34.90
2019-06-26T13:19:45.397Z,34.64
2019-06-26T13:22:13.829Z,34.77
2019-06-26T13:24:44.045Z,34.78
2019-06-26T13:27:12.494Z,35.09
2019-06-26T13:29:40.893Z,34.69
2019-06-26T13:32:09.305Z,34.68
2019-06-26T13:34:37.712Z,34.48
2019-06-26T13:37:07.407Z,34.45
2019-06-26T13:39:36.031Z,34.54
2019-06-26T13:42:04.409Z,34.45
2019-06-26T13:44:32.838Z,34.32
2019-06-26T13:47:01.258Z,34.22
2019-06-26T13:49:29.729Z,34.31
2019-06-26T13:51:58.139Z,34.43
2019-06-26T13:54:26.540Z,34.46
2019-06-26T13:56:54.946Z,34.53
2019-06-26T13:59:23.363Z,34.36
2019-06-26T14:01:51.779Z,34.27
2019-06-26T14:04:20.214Z,34.24
2019-06-26T14:06:48.619Z,33.88
2019-06-26T14:09:17.125Z,33.26
2019-06-26T14:11:45.519Z,33.17
2019-06-26T14:14:16.869Z,32.97
2019-06-26T14:16:45.858Z,33.00
2019-06-26T14:19:14.298Z,33.28
2019-06-26T14:21:42.673Z,33.30
2019-06-26T14:24:11.078Z,33.29
2019-06-26T14:26:39.490Z,33.07
2019-06-26T14:29:20.442Z,33.07
2019-06-26T14:31:38.046Z,33.06
2019-06-26T14:34:06.475Z,32.60
2019-06-26T14:36:34.875Z,32.45
2019-06-26T14:39:03.289Z,32.40
2019-06-26T14:41:31.692Z,32.39
2019-06-26T14:44:00.110Z,32.36
2019-06-26T14:46:28.511Z,32.51
2019-06-26T14:48:56.933Z,32.20
2019-06-26T14:51:40.927Z,32.64
2019-06-26T14:53:55.494Z,32.42
2019-06-26T14:56:23.887Z,32.27
2019-06-26T14:58:52.303Z,32.07
2019-06-26T15:01:20.706Z,32.24
2019-06-26T15:03:49.133Z,31.77
2019-06-26T15:06:17.526Z,31.93
2019-06-26T15:08:45.938Z,31.59
2019-06-26T15:11:15.647Z,31.35
2019-06-26T15:13:44.160Z,31.14
2019-06-26T15:16:12.570Z,31.22
2019-06-26T15:18:40.978Z,30.95
2019-06-26T15:21:09.392Z,30.66
2019-06-26T15:23:37.814Z,30.75
2019-06-26T15:26:06.221Z,30.59
2019-06-26T15:28:34.629Z,30.38
2019-06-26T15:31:03.028Z,30.27
2019-06-26T15:33:31.429Z,30.04
2019-06-26T15:35:59.863Z,30.10
2019-06-26T15:38:28.270Z,30.00
2019-06-26T15:40:56.680Z,29.77
2019-06-26T15:43:25.087Z,29.78
2019-06-26T15:45:53.524Z,30.00
2019-06-26T15:48:21.930Z,30.18
2019-06-26T15:50:50.347Z,30.29
2019-06-26T15:53:18.741Z,30.32
2019-06-26T15:55:47.177Z,30.40
2019-06-26T15:58:15.588Z,30.52
2019-06-26T16:00:44.774Z,30.47
2019-06-26T16:03:13.167Z,30.66
2019-06-26T16:05:41.586Z,30.28
2019-06-26T16:08:10.021Z,30.15
2019-06-26T16:10:38.438Z,29.87
2019-06-26T16:13:06.859Z,29.76
2019-06-26T16:15:35.632Z,29.57
2019-06-26T16:18:11.080Z,29.52
2019-06-26T16:20:39.492Z,29.85
2019-06-26T16:23:07.920Z,29.98
2019-06-26T16:25:36.333Z,30.05
2019-06-26T16:28:06.059Z,30.18
2019-06-26T16:30:34.674Z,29.74
2019-06-26T16:33:03.090Z,29.78
2019-06-26T16:35:31.560Z,29.54
2019-06-26T16:38:01.635Z,29.66
2019-06-26T16:40:30.051Z,29.40
2019-06-26T16:42:58.448Z,29.07
2019-06-26T16:45:26.874Z,28.98
2019-06-26T16:47:55.290Z,28.52
2019-06-26T16:50:23.771Z,28.09
2019-06-26T16:52:52.121Z,27.96
2019-06-26T16:55:20.613Z,27.95
2019-06-26T16:57:49.020Z,27.79
2019-06-26T17:00:19.174Z,27.91
2019-06-26T17:02:47.579Z,27.92
2019-06-26T17:05:16.000Z,27.58
2019-06-26T17:07:44.424Z,27.55
2019-06-26T17:10:13.094Z,27.34
2019-06-26T17:12:41.525Z,27.25
2019-06-26T17:15:10.571Z,27.14
2019-06-26T17:17:39.064Z,27.41
2019-06-26T17:20:07.932Z,27.21
2019-06-26T17:22:36.363Z,27.09
2019-06-26T17:25:06.112Z,26.82
2019-06-26T17:27:34.543Z,26.38
2019-06-26T17:30:03.409Z,26.46
2019-06-26T17:32:31.832Z,26.26
2019-06-26T17:35:00.256Z,26.03
2019-06-26T17:37:28.740Z,25.99
2019-06-26T17:39:58.670Z,25.96
2019-06-26T17:42:27.083Z,26.03
2019-06-26T17:44:55.498Z,25.58
2019-06-26T17:47:23.910Z,25.10
2019-06-26T17:49:52.507Z,24.58
2019-06-26T17:52:21.107Z,24.50
2019-06-26T17:54:49.518Z,24.45
2019-06-26T17:57:17.934Z,24.35
2019-06-26T17:59:46.363Z,24.48
2019-06-26T18:02:15.059Z,24.47
2019-06-26T18:04:43.472Z,24.38
2019-06-26T18:07:11.894Z,24.37
2019-06-26T18:09:40.309Z,24.55
2019-06-26T18:12:08.728Z,24.16
2019-06-26T18:14:37.149Z,24.22
2019-06-26T18:17:21.076Z,24.03
2019-06-26T18:19:35.740Z,23.91
2019-06-26T18:22:04.153Z,23.79
2019-06-26T18:24:32.574Z,23.18
2019-06-26T18:27:00.981Z,23.17
2019-06-26T18:29:29.397Z,22.90
2019-06-26T18:31:57.808Z,22.88
2019-06-26T18:34:26.242Z,22.65
2019-06-26T18:36:54.653Z,22.36
2019-06-26T18:39:23.062Z,22.44
2019-06-26T18:41:51.484Z,22.38
2019-06-26T18:44:19.895Z,22.41
2019-06-26T18:46:48.317Z,22.40
2019-06-26T18:49:16.722Z,22.12
2019-06-26T18:51:45.138Z,21.88
2019-06-26T18:54:13.549Z,22.08
2019-06-26T18:56:41.956Z,21.93
2019-06-26T18:59:10.390Z,21.61
2019-06-26T19:01:38.872Z,21.57
2019-06-26T19:04:07.369Z,21.48
2019-06-26T19:06:35.789Z,21.46
2019-06-26T19:09:05.934Z,21.45
2019-06-26T19:11:34.342Z,21.39
2019-06-26T19:14:02.819Z,20.98
2019-06-26T19:16:31.389Z,20.71
2019-06-26T19:18:59.810Z,20.72
2019-06-26T19:21:28.255Z,20.72
2019-06-26T19:24:09.744Z,20.63
2019-06-26T19:26:27.289Z,20.47
2019-06-26T19:28:55.793Z,20.46
2019-06-26T19:31:24.417Z,20.24
2019-06-26T19:33:52.909Z,20.06
2019-06-26T19:36:24.154Z,20.07
2019-06-26T19:38:51.517Z,20.10
2019-06-26T19:41:19.962Z,19.91
2019-06-26T19:43:48.374Z,19.73
2019-06-26T19:46:16.881Z,19.67
2019-06-26T19:48:45.262Z,19.71
2019-06-26T19:51:13.719Z,19.43
2019-06-26T19:53:42.110Z,19.30
2019-06-26T19:56:10.546Z,19.30
2019-06-26T19:58:38.940Z,19.19
2019-06-26T20:01:07.345Z,19.14
2019-06-26T20:03:35.758Z,19.26
2019-06-26T20:06:04.249Z,19.37
2019-06-26T20:08:32.681Z,19.34
2019-06-26T20:11:01.157Z,19.26
2019-06-26T20:13:29.667Z,19.12
2019-06-26T20:15:58.225Z,19.17
2019-06-26T20:18:26.764Z,19.15
2019-06-26T20:20:55.234Z,19.35
2019-06-26T20:23:23.899Z,19.40
2019-06-26T20:25:52.386Z,19.20
2019-06-26T20:28:20.812Z,19.20
2019-06-26T20:30:49.235Z,19.21
2019-06-26T20:33:17.757Z,19.17
2019-06-26T20:35:46.182Z,19.26
2019-06-26T20:38:14.784Z,19.11
2019-06-26T20:40:45.838Z,19.17
2019-06-26T20:43:13.319Z,19.09
2019-06-26T20:45:41.750Z,18.95
2019-06-26T20:48:10.195Z,18.94
2019-06-26T20:50:38.569Z,18.94
2019-06-26T20:53:07.034Z,18.83
2019-06-26T20:55:35.463Z,18.70
2019-06-26T20:58:03.885Z,18.68
2019-06-26T21:00:32.288Z,18.52
2019-06-26T21:03:00.719Z,18.38
2019-06-26T21:05:29.206Z,18.18
2019-06-26T21:07:57.635Z,18.33
2019-06-26T21:10:26.031Z,18.35
2019-06-26T21:12:54.456Z,18.59
2019-06-26T21:15:22.861Z,18.60
2019-06-26T21:17:51.288Z,18.66
2019-06-26T21:20:19.700Z,18.72
2019-06-26T21:22:48.117Z,18.77
2019-06-26T21:25:18.835Z,18.74
2019-06-26T21:27:46.664Z,18.58
2019-06-26T21:30:15.157Z,18.44
2019-06-26T21:32:43.585Z,18.35
2019-06-26T21:35:12.063Z,18.29
2019-06-26T21:37:40.546Z,18.32
2019-06-26T21:40:09.206Z,18.37
2019-06-26T21:42:37.615Z,18.39
2019-06-26T21:45:06.472Z,18.44
2019-06-26T21:47:34.904Z,18.39
2019-06-26T21:50:03.856Z,18.48
2019-06-26T21:52:33.786Z,18.71
2019-06-26T21:55:02.209Z,18.80
2019-06-26T21:57:30.639Z,18.92
2019-06-26T21:59:59.058Z,18.60
2019-06-26T22:02:29.028Z,18.47
2019-06-26T22:04:57.504Z,18.51
2019-06-26T22:07:25.911Z,18.62
2019-06-26T22:09:54.326Z,18.68
2019-06-26T22:12:22.752Z,18.87
2019-06-26T22:14:51.164Z,18.96
2019-06-26T22:17:19.577Z,18.77
2019-06-26T22:19:47.996Z,18.86
2019-06-26T22:22:16.422Z,19.02
2019-06-26T22:24:44.874Z,18.79
2019-06-26T22:27:14.138Z,18.78
2019-06-26T22:29:42.692Z,18.77
2019-06-26T22:32:11.236Z,18.94
2019-06-26T22:34:39.654Z,18.84
2019-06-26T22:37:08.070Z,18.83
2019-06-26T22:39:36.489Z,18.73
2019-06-26T22:42:04.889Z,18.76
2019-06-26T22:44:33.329Z,18.65
2019-06-26T22:47:01.749Z,18.58
2019-06-26T22:49:30.154Z,18.40
2019-06-26T22:51:58.640Z,18.40
2019-06-26T22:54:27.134Z,18.34
2019-06-26T22:56:55.682Z,18.05
2019-06-26T22:59:24.101Z,18.18
2019-06-26T23:01:52.509Z,18.32
2019-06-26T23:04:21.117Z,18.20
2019-06-26T23:06:49.522Z,18.20
2019-06-26T23:09:17.945Z,18.33
2019-06-26T23:11:46.345Z,18.22
2019-06-26T23:14:14.758Z,18.20
2019-06-26T23:16:43.165Z,18.23
2019-06-26T23:19:14.802Z,18.25
2019-06-26T23:21:41.701Z,18.10
2019-06-26T23:24:10.115Z,18.15
2019-06-26T23:26:38.606Z,18.12
2019-06-26T23:29:07.027Z,17.82
2019-06-26T23:31:35.442Z,17.75
2019-06-26T23:34:03.854Z,17.63
2019-06-26T23:36:32.300Z,17.79
2019-06-26T23:39:00.722Z,17.83
2019-06-26T23:41:29.128Z,17.88
2019-06-26T23:43:57.546Z,17.79
2019-06-26T23:46:25.962Z,17.63
2019-06-26T23:48:54.369Z,17.48
2019-06-26T23:51:22.784Z,17.48
2019-06-26T23:53:51.216Z,17.58
2019-06-26T23:56:19.624Z,17.38
2019-06-26T23:58:48.062Z,17.47
